createdAt,value
2019-01-19T00:01:39.033Z,94.80
2019-01-19T00:04:22.817Z,95.00
2019-01-19T00:07:12.707Z,94.90
2019-01-19T00:09:56.308Z,94.70
2019-01-19T00:12:33.994Z,94.40
2019-01-19T00:15:04.025Z,94.30
2019-01-19T00:17:47.879Z,93.70
2019-01-19T00:20:22.939Z,93.90
2019-01-19T00:23:10.034Z,94.70
2019-01-19T00:26:04.478Z,95.00
2019-01-19T00:28:36.595Z,95.30
2019-01-19T00:31:11.526Z,95.40
2019-01-19T00:33:52.427Z,95.40
2019-01-19T00:36:27.327Z,95.60
2019-01-19T00:39:17.140Z,95.60
2019-01-19T00:42:10.131Z,95.30
2019-01-19T00:44:42.244Z,95.50
2019-01-19T00:47:29.066Z,95.50
2019-01-19T00:50:03.884Z,95.50
2019-01-19T00:52:38.626Z,95.60
2019-01-19T00:55:13.621Z,95.60
2019-01-19T00:57:57.624Z,95.40
2019-01-19T01:00:35.380Z,95.00
2019-01-19T01:03:07.501Z,94.90
2019-01-19T01:05:39.567Z,95.00
2019-01-19T01:08:26.434Z,95.00
2019-01-19T01:11:01.395Z,95.00
2019-01-19T01:13:42.447Z,94.80
2019-01-19T01:16:17.479Z,95.10
2019-01-19T01:19:07.214Z,94.90
2019-01-19T01:21:48.032Z,94.70
2019-01-19T01:24:35.064Z,95.10
2019-01-19T01:27:09.729Z,95.20
2019-01-19T01:29:58.475Z,95.50
2019-01-19T01:32:36.440Z,95.70
2019-01-19T01:35:23.359Z,95.70
2019-01-19T01:37:57.957Z,95.90
2019-01-19T01:40:46.551Z,95.80
2019-01-19T01:43:18.616Z,95.80
2019-01-19T01:46:05.465Z,95.90
2019-01-19T01:48:55.246Z,95.80
2019-01-19T01:51:30.103Z,95.70
2019-01-19T01:54:04.800Z,95.90
2019-01-19T01:56:33.797Z,95.90
2019-01-19T01:59:18.103Z,95.80
2019-01-19T02:02:02.176Z,95.80
2019-01-19T02:04:55.520Z,96.00
2019-01-19T02:07:33.405Z,95.80
2019-01-19T02:10:21.880Z,95.50
2019-01-19T02:13:02.619Z,95.50
2019-01-19T02:15:46.670Z,95.50
2019-01-19T02:18:41.171Z,95.50
2019-01-19T02:21:41.502Z,95.70
2019-01-19T02:24:32.748Z,95.80
2019-01-19T02:27:07.449Z,95.80
2019-01-19T02:29:45.215Z,95.50
2019-01-19T02:32:29.292Z,95.50
2019-01-19T02:35:01.355Z,95.70
2019-01-19T02:37:39.377Z,95.70
2019-01-19T02:40:11.427Z,95.60
2019-01-19T02:43:02.994Z,95.80
2019-01-19T02:45:57.210Z,95.80
2019-01-19T02:48:31.863Z,96.00
2019-01-19T02:51:04.018Z,95.80
2019-01-19T02:53:36.065Z,95.70
2019-01-19T02:56:11.214Z,95.40
2019-01-19T02:58:58.641Z,95.70
2019-01-19T03:01:30.756Z,95.70
2019-01-19T03:04:20.411Z,95.80
2019-01-19T03:06:58.250Z,96.00
2019-01-19T03:09:35.822Z,95.90
2019-01-19T03:12:25.592Z,95.70
2019-01-19T03:15:09.546Z,95.80
2019-01-19T03:17:47.514Z,95.90
2019-01-19T03:20:25.219Z,95.50
2019-01-19T03:22:57.342Z,95.60
2019-01-19T03:25:35.217Z,95.60
2019-01-19T03:28:26.788Z,95.80
2019-01-19T03:31:01.522Z,96.00
2019-01-19T03:33:45.321Z,95.70
2019-01-19T03:36:36.816Z,95.60
2019-01-19T03:39:29.016Z,95.60
2019-01-19T03:42:01.469Z,95.30
2019-01-19T03:44:33.591Z,95.60
2019-01-19T03:47:11.493Z,95.60
2019-01-19T03:49:46.570Z,95.80
2019-01-19T03:52:27.334Z,96.00
2019-01-19T03:55:15.552Z,96.00
2019-01-19T03:58:05.696Z,96.10
2019-01-19T04:00:55.657Z,96.20
2019-01-19T04:03:45.451Z,95.90
2019-01-19T04:06:29.128Z,94.90
2019-01-19T04:09:12.865Z,94.60
2019-01-19T04:11:44.930Z,94.80
2019-01-19T04:14:22.992Z,95.20
2019-01-19T04:17:17.046Z,94.70
2019-01-19T04:19:51.683Z,94.70
2019-01-19T04:22:23.857Z,95.40
2019-01-19T04:24:55.965Z,95.60
2019-01-19T04:27:24.909Z,95.60
2019-01-19T04:29:53.909Z,95.70
2019-01-19T04:32:22.853Z,95.50
2019-01-19T04:34:51.851Z,95.60
2019-01-19T04:37:20.874Z,95.40
2019-01-19T04:39:49.889Z,95.00
2019-01-19T04:42:19.136Z,95.10
2019-01-19T04:44:48.141Z,94.90
2019-01-19T04:47:17.079Z,95.00
2019-01-19T04:49:46.177Z,95.20
2019-01-19T04:52:15.233Z,95.60
2019-01-19T04:54:44.212Z,95.80
2019-01-19T04:57:13.144Z,95.90
2019-01-19T04:59:42.151Z,95.50
2019-01-19T05:02:11.096Z,95.70
2019-01-19T05:04:40.093Z,95.70
2019-01-19T05:07:09.129Z,95.70
2019-01-19T05:09:38.145Z,95.90
2019-01-19T05:12:07.082Z,95.80
2019-01-19T05:14:36.091Z,95.70
2019-01-19T05:17:05.022Z,95.70
2019-01-19T05:19:41.246Z,95.60
2019-01-19T05:22:10.175Z,95.80
2019-01-19T05:24:39.169Z,95.80
2019-01-19T05:27:08.207Z,95.90
2019-01-19T05:29:37.210Z,96.20
2019-01-19T05:32:06.166Z,96.20
2019-01-19T05:34:35.196Z,96.20
2019-01-19T05:37:04.186Z,96.20
2019-01-19T05:39:33.121Z,95.90
2019-01-19T05:42:02.119Z,96.00
2019-01-19T05:44:31.044Z,96.10
2019-01-19T05:47:00.046Z,96.00
2019-01-19T05:49:28.982Z,95.70
2019-01-19T05:51:57.990Z,95.70
2019-01-19T05:54:27.015Z,95.50
2019-01-19T05:56:56.019Z,95.30
2019-01-19T05:59:24.965Z,95.00
2019-01-19T06:01:53.962Z,94.90
2019-01-19T06:04:22.992Z,95.10
2019-01-19T06:06:51.990Z,95.60
2019-01-19T06:09:20.930Z,95.60
2019-01-19T06:11:49.931Z,95.60
2019-01-19T06:14:18.863Z,95.70
2019-01-19T06:16:47.879Z,95.70
2019-01-19T06:19:17.106Z,95.80
2019-01-19T06:21:47.679Z,96.00
2019-01-19T06:24:16.610Z,96.00
2019-01-19T06:26:45.604Z,95.90
2019-01-19T06:29:14.542Z,96.00
2019-01-19T06:31:43.546Z,95.80
2019-01-19T06:34:12.481Z,95.80
2019-01-19T06:36:41.485Z,95.80
2019-01-19T06:39:10.409Z,95.90
2019-01-19T06:41:39.508Z,95.90
2019-01-19T06:44:08.448Z,96.00
2019-01-19T06:46:37.385Z,95.90
2019-01-19T06:49:06.482Z,96.00
2019-01-19T06:51:35.414Z,96.20
2019-01-19T06:54:04.514Z,95.70
2019-01-19T06:56:33.458Z,95.50
2019-01-19T06:59:02.564Z,95.40
2019-01-19T07:01:31.506Z,95.50
2019-01-19T07:04:00.522Z,95.30
2019-01-19T07:06:29.454Z,95.60
2019-01-19T07:08:58.555Z,95.70
2019-01-19T07:11:27.487Z,95.60
2019-01-19T07:13:56.503Z,95.70
2019-01-19T07:16:25.435Z,95.80
2019-01-19T07:18:54.425Z,95.70
2019-01-19T07:21:23.467Z,95.60
2019-01-19T07:23:52.599Z,95.50
2019-01-19T07:26:21.628Z,95.40
2019-01-19T07:28:50.636Z,95.50
2019-01-19T07:31:19.568Z,95.20
2019-01-19T07:33:48.673Z,95.00
2019-01-19T07:36:17.636Z,94.80
2019-01-19T07:38:46.714Z,94.60
2019-01-19T07:41:15.651Z,94.50
2019-01-19T07:43:44.755Z,94.10
2019-01-19T07:46:14.090Z,93.70
2019-01-19T07:48:43.093Z,93.60
2019-01-19T07:51:12.136Z,93.70
2019-01-19T07:53:41.068Z,93.80
2019-01-19T07:56:10.075Z,94.10
2019-01-19T07:58:38.999Z,94.50
2019-01-19T08:01:08.108Z,94.40
2019-01-19T08:03:37.045Z,94.30
2019-01-19T08:06:06.052Z,93.40
2019-01-19T08:08:35.004Z,92.50
2019-01-19T08:11:04.009Z,91.90
2019-01-19T08:13:32.942Z,91.60
2019-01-19T08:16:02.056Z,91.30
2019-01-19T08:18:31.085Z,90.70
2019-01-19T08:21:00.080Z,90.80
2019-01-19T08:23:29.038Z,90.10
2019-01-19T08:25:58.148Z,89.80
2019-01-19T08:28:27.088Z,90.00
2019-01-19T08:30:56.184Z,89.70
2019-01-19T08:33:25.218Z,89.30
2019-01-19T08:35:54.428Z,88.60
2019-01-19T08:38:23.467Z,87.70
2019-01-19T08:40:52.479Z,86.90
2019-01-19T08:43:29.089Z,84.30
2019-01-19T08:45:58.081Z,82.50
2019-01-19T08:48:27.104Z,81.60
2019-01-19T08:50:56.215Z,78.70
2019-01-19T08:53:25.139Z,80.00
2019-01-19T08:55:54.244Z,77.30
2019-01-19T08:58:23.273Z,79.80
2019-01-19T09:00:52.369Z,79.10
2019-01-19T09:03:21.301Z,79.10
2019-01-19T09:05:50.234Z,79.20
2019-01-19T09:08:19.218Z,77.60
2019-01-19T09:10:48.156Z,78.80
2019-01-19T09:13:17.163Z,79.70
2019-01-19T09:15:46.184Z,80.30
2019-01-19T09:18:15.284Z,79.60
2019-01-19T09:20:44.212Z,79.40
2019-01-19T09:23:17.248Z,78.60
2019-01-19T09:25:46.180Z,78.40
2019-01-19T09:28:15.170Z,79.10
2019-01-19T09:30:44.098Z,78.10
2019-01-19T09:33:13.088Z,78.00
2019-01-19T09:35:42.113Z,79.60
2019-01-19T09:38:11.199Z,78.30
2019-01-19T09:40:40.123Z,78.50
2019-01-19T09:43:09.240Z,77.60
2019-01-19T09:45:38.164Z,77.50
2019-01-19T09:48:07.291Z,77.30
2019-01-19T09:50:36.223Z,78.60
2019-01-19T09:53:05.310Z,77.10
2019-01-19T09:55:34.339Z,76.00
2019-01-19T09:58:03.435Z,76.50
2019-01-19T10:00:37.573Z,76.80
2019-01-19T10:03:02.912Z,76.00
2019-01-19T10:05:31.840Z,76.40
2019-01-19T10:08:00.923Z,75.50
2019-01-19T10:10:29.947Z,73.90
2019-01-19T10:12:58.929Z,75.60
2019-01-19T10:15:27.964Z,74.80
2019-01-19T10:17:57.050Z,76.00
2019-01-19T10:20:30.992Z,74.80
2019-01-19T10:23:00.082Z,74.10
2019-01-19T10:25:29.005Z,77.00
2019-01-19T10:27:57.920Z,75.00
2019-01-19T10:30:31.295Z,74.60
2019-01-19T10:33:00.387Z,74.50
2019-01-19T10:35:29.309Z,74.70
2019-01-19T10:37:58.269Z,72.10
2019-01-19T10:40:27.266Z,75.10
2019-01-19T10:42:56.182Z,74.30
2019-01-19T10:45:29.732Z,71.50
2019-01-19T10:47:58.409Z,70.90
2019-01-19T10:50:27.477Z,72.20
2019-01-19T10:52:56.412Z,71.60
2019-01-19T10:55:25.663Z,74.30
2019-01-19T10:57:54.597Z,72.70
2019-01-19T11:00:26.438Z,73.50
2019-01-19T11:02:56.168Z,71.60
2019-01-19T11:05:25.399Z,72.50
2019-01-19T11:08:03.620Z,72.50
2019-01-19T11:10:32.773Z,73.10
2019-01-19T11:13:01.815Z,72.30
2019-01-19T11:15:31.093Z,71.40
2019-01-19T11:18:00.176Z,69.00
2019-01-19T11:20:32.503Z,69.10
2019-01-19T11:23:01.944Z,69.60
2019-01-19T11:25:31.140Z,70.20
2019-01-19T11:28:00.198Z,70.10
2019-01-19T11:30:30.890Z,69.30
2019-01-19T11:32:59.936Z,70.40
2019-01-19T11:35:29.096Z,70.90
2019-01-19T11:37:58.139Z,69.10
2019-01-19T11:40:36.117Z,71.60
2019-01-19T11:43:06.745Z,70.50
2019-01-19T11:45:40.973Z,69.80
2019-01-19T11:48:09.976Z,69.60
2019-01-19T11:50:38.997Z,70.40
2019-01-19T11:53:08.013Z,68.90
2019-01-19T11:55:37.003Z,70.00
2019-01-19T11:58:05.941Z,70.10
2019-01-19T12:00:37.046Z,68.40
2019-01-19T12:03:09.353Z,69.60
2019-01-19T12:05:39.917Z,69.20
2019-01-19T12:08:09.844Z,66.90
2019-01-19T12:10:38.947Z,65.00
2019-01-19T12:13:07.983Z,66.50
2019-01-19T12:15:36.973Z,65.80
2019-01-19T12:18:05.919Z,67.10
2019-01-19T12:20:37.532Z,66.10
2019-01-19T12:23:07.273Z,65.10
2019-01-19T12:25:36.303Z,62.60
2019-01-19T12:28:05.402Z,64.60
2019-01-19T12:30:35.356Z,63.60
2019-01-19T12:33:04.840Z,64.10
2019-01-19T12:35:33.767Z,62.00
2019-01-19T12:38:03.362Z,63.70
2019-01-19T12:40:32.281Z,64.60
2019-01-19T12:43:04.243Z,61.80
2019-01-19T12:45:36.334Z,61.30
2019-01-19T12:48:05.317Z,62.80
2019-01-19T12:50:34.348Z,63.70
2019-01-19T12:53:03.458Z,62.80
2019-01-19T12:55:32.374Z,65.10
2019-01-19T12:58:01.471Z,63.80
2019-01-19T13:00:30.504Z,61.40
2019-01-19T13:02:59.505Z,60.30
2019-01-19T13:05:34.600Z,61.50
2019-01-19T13:08:05.515Z,60.60
2019-01-19T13:10:37.565Z,63.00
2019-01-19T13:13:07.850Z,67.60
2019-01-19T13:15:45.867Z,68.30
2019-01-19T13:18:35.844Z,70.10
2019-01-19T13:21:27.200Z,68.80
2019-01-19T13:24:15.464Z,70.10
2019-01-19T13:26:53.164Z,68.20
2019-01-19T13:29:37.290Z,71.10
2019-01-19T13:32:12.155Z,70.50
2019-01-19T13:35:07.883Z,71.10
2019-01-19T13:37:57.592Z,70.70
2019-01-19T13:41:01.168Z,71.00
2019-01-19T13:44:07.847Z,71.90
2019-01-19T13:46:56.323Z,71.20
2019-01-19T13:50:03.042Z,72.10
2019-01-19T13:52:38.074Z,72.10
2019-01-19T13:55:19.268Z,72.80
2019-01-19T13:57:54.095Z,74.10
2019-01-19T14:01:00.533Z,73.90
2019-01-19T14:07:12.997Z,73.60
2019-01-19T14:09:45.202Z,72.60
2019-01-19T14:12:38.498Z,74.30
2019-01-19T14:15:19.730Z,73.40
2019-01-19T14:17:57.951Z,74.80
2019-01-19T14:20:38.756Z,74.30
2019-01-19T14:23:13.823Z,74.00
2019-01-19T14:25:45.922Z,73.80
2019-01-19T14:28:26.660Z,74.10
2019-01-19T14:31:25.675Z,75.60
2019-01-19T14:34:15.931Z,75.00
2019-01-19T14:37:12.054Z,75.40
2019-01-19T14:39:52.844Z,76.00
2019-01-19T14:42:33.397Z,76.70
2019-01-19T14:45:20.248Z,78.30
2019-01-19T14:48:02.382Z,79.40
2019-01-19T14:50:37.074Z,77.90
2019-01-19T14:53:17.799Z,78.10
2019-01-19T14:55:52.628Z,79.50
2019-01-19T14:58:39.558Z,79.80
2019-01-19T15:01:26.714Z,80.50
2019-01-19T15:04:04.335Z,80.70
2019-01-19T15:06:36.548Z,80.60
2019-01-19T15:09:23.421Z,82.80
2019-01-19T15:12:26.951Z,83.70
2019-01-19T15:15:17.122Z,84.90
2019-01-19T15:17:52.057Z,84.60
2019-01-19T15:20:24.215Z,84.60
2019-01-19T15:23:20.494Z,84.90
2019-01-19T15:26:01.392Z,86.10
2019-01-19T15:28:33.451Z,85.80
2019-01-19T15:31:14.168Z,86.40
2019-01-19T15:34:11.885Z,87.40
2019-01-19T15:36:53.066Z,86.60
2019-01-19T15:39:27.764Z,86.80
2019-01-19T15:42:05.768Z,86.60
2019-01-19T15:44:37.831Z,86.60
2019-01-19T15:47:15.868Z,87.30
2019-01-19T15:49:53.854Z,88.00
2019-01-19T15:52:28.603Z,88.50
2019-01-19T15:55:06.410Z,88.80
2019-01-19T15:57:38.540Z,89.30
2019-01-19T16:00:22.559Z,90.00
2019-01-19T16:03:03.960Z,89.90
2019-01-19T16:05:54.039Z,89.50
2019-01-19T16:08:35.091Z,89.70
2019-01-19T16:11:18.879Z,90.00
2019-01-19T16:14:06.076Z,90.20
2019-01-19T16:16:49.558Z,90.40
2019-01-19T16:19:30.288Z,90.70
2019-01-19T16:22:11.335Z,90.70
2019-01-19T16:24:55.413Z,90.90
2019-01-19T16:27:42.383Z,91.20
2019-01-19T16:30:32.343Z,91.20
2019-01-19T16:33:16.460Z,91.20
2019-01-19T16:35:57.602Z,91.50
2019-01-19T16:38:29.832Z,91.50
2019-01-19T16:41:26.034Z,91.60
2019-01-19T16:44:09.925Z,91.70
2019-01-19T16:46:58.123Z,91.80
2019-01-19T16:49:39.158Z,91.80
2019-01-19T16:52:13.917Z,91.80
2019-01-19T16:54:58.068Z,92.10
2019-01-19T16:57:33.206Z,92.10
2019-01-19T17:00:20.242Z,92.20
2019-01-19T17:03:07.063Z,92.50
2019-01-19T17:05:39.180Z,92.50
2019-01-19T17:08:17.219Z,92.30
2019-01-19T17:10:58.042Z,92.40
2019-01-19T17:13:50.842Z,92.70
2019-01-19T17:16:31.536Z,92.70
2019-01-19T17:19:03.666Z,92.80
2019-01-19T17:21:55.031Z,93.00
2019-01-19T17:24:39.126Z,93.00
2019-01-19T17:27:25.999Z,93.00
2019-01-19T17:29:58.115Z,93.10
2019-01-19T17:32:49.384Z,93.10
2019-01-19T17:35:37.216Z,93.20
2019-01-19T17:38:17.936Z,93.10
2019-01-19T17:41:07.919Z,93.20
2019-01-19T17:43:57.645Z,93.20
2019-01-19T17:46:35.446Z,92.90
2019-01-19T17:49:16.126Z,92.70
2019-01-19T17:52:07.686Z,92.90
2019-01-19T17:54:51.432Z,92.60
2019-01-19T17:57:44.816Z,92.50
2019-01-19T18:00:17.039Z,92.60
2019-01-19T18:02:52.000Z,92.50
2019-01-19T18:05:36.152Z,92.60
2019-01-19T18:08:14.060Z,92.70
2019-01-19T18:10:51.658Z,92.80
2019-01-19T18:13:26.843Z,92.90
2019-01-19T18:16:21.212Z,92.80
2019-01-19T18:18:53.280Z,93.40
2019-01-19T18:21:34.324Z,93.40
2019-01-19T18:24:06.374Z,93.20
2019-01-19T18:26:38.588Z,93.30
2019-01-19T18:29:35.675Z,93.40
2019-01-19T18:32:13.482Z,93.50
2019-01-19T18:34:54.481Z,93.40
2019-01-19T18:37:31.792Z,93.60
2019-01-19T18:40:06.732Z,93.30
2019-01-19T18:42:42.720Z,93.40
2019-01-19T18:45:37.520Z,93.40
2019-01-19T18:48:15.356Z,93.70
2019-01-19T18:51:05.545Z,93.70
2019-01-19T18:53:40.843Z,93.50
2019-01-19T18:56:21.766Z,93.60
2019-01-19T18:58:56.599Z,93.40
2019-01-19T19:01:28.654Z,93.40
2019-01-19T19:04:29.312Z,93.40
2019-01-19T19:07:18.057Z,93.60
2019-01-19T19:10:02.286Z,93.50
2019-01-19T19:12:37.926Z,93.50
2019-01-19T19:15:26.182Z,93.70
2019-01-19T19:18:13.016Z,93.70
2019-01-19T19:20:45.072Z,93.40
2019-01-19T19:23:20.115Z,93.10
2019-01-19T19:26:06.883Z,93.10
2019-01-19T19:28:50.911Z,93.20
2019-01-19T19:31:40.973Z,93.40
2019-01-19T19:34:16.106Z,93.40
2019-01-19T19:36:51.109Z,93.70
2019-01-19T19:39:37.924Z,94.00
2019-01-19T19:42:22.019Z,94.10
2019-01-19T19:44:54.167Z,93.90
2019-01-19T19:47:35.006Z,93.80
2019-01-19T19:50:19.104Z,93.70
2019-01-19T19:52:48.042Z,93.90
2019-01-19T19:55:16.122Z,94.00
2019-01-19T19:57:45.056Z,94.30
2019-01-19T20:00:14.164Z,94.10
2019-01-19T20:02:43.206Z,94.00
2019-01-19T20:05:13.329Z,93.70
2019-01-19T20:07:42.480Z,93.70
2019-01-19T20:10:17.089Z,93.80
2019-01-19T20:12:43.155Z,94.00
2019-01-19T20:15:12.270Z,94.10
2019-01-19T20:17:41.204Z,94.20
2019-01-19T20:20:11.011Z,94.30
2019-01-19T20:22:40.060Z,94.50
2019-01-19T20:25:09.061Z,94.60
2019-01-19T20:27:38.006Z,94.40
2019-01-19T20:30:10.120Z,94.80
2019-01-19T20:32:39.056Z,94.90
2019-01-19T20:35:08.762Z,94.80
2019-01-19T20:37:37.801Z,95.10
2019-01-19T20:40:09.210Z,95.00
2019-01-19T20:42:38.145Z,94.80
2019-01-19T20:45:14.552Z,94.80
2019-01-19T20:47:43.605Z,94.90
2019-01-19T20:50:13.211Z,94.90
2019-01-19T20:52:42.135Z,94.70
2019-01-19T20:55:11.841Z,94.50
2019-01-19T20:57:40.898Z,94.30
2019-01-19T21:00:16.186Z,94.40
2019-01-19T21:02:45.223Z,94.20
2019-01-19T21:05:14.244Z,94.30
2019-01-19T21:07:43.199Z,94.70
2019-01-19T21:10:12.210Z,94.40
2019-01-19T21:12:41.152Z,94.10
2019-01-19T21:15:13.396Z,94.00
2019-01-19T21:17:42.454Z,94.10
2019-01-19T21:20:14.557Z,94.10
2019-01-19T21:22:43.625Z,94.10
2019-01-19T21:25:13.767Z,94.30
2019-01-19T21:27:42.845Z,94.70
2019-01-19T21:30:14.035Z,94.70
2019-01-19T21:32:43.135Z,94.40
2019-01-19T21:35:12.172Z,94.30
2019-01-19T21:37:41.167Z,94.10
2019-01-19T21:40:12.813Z,94.10
2019-01-19T21:42:41.820Z,94.10
2019-01-19T21:45:13.828Z,94.10
2019-01-19T21:47:42.943Z,94.30
2019-01-19T21:50:12.382Z,94.50
2019-01-19T21:52:41.391Z,94.50
2019-01-19T21:55:10.743Z,94.60
2019-01-19T21:57:39.857Z,94.30
2019-01-19T22:00:17.715Z,94.30
2019-01-19T22:02:46.815Z,94.20
2019-01-19T22:05:15.752Z,94.10
2019-01-19T22:07:44.755Z,94.50
2019-01-19T22:10:16.496Z,94.00
2019-01-19T22:12:45.526Z,94.10
2019-01-19T22:15:16.477Z,94.00
2019-01-19T22:17:45.587Z,93.90
2019-01-19T22:20:16.621Z,94.00
2019-01-19T22:22:45.720Z,93.90
2019-01-19T22:25:14.661Z,94.10
2019-01-19T22:27:45.242Z,94.10
2019-01-19T22:30:22.389Z,94.40
2019-01-19T22:32:52.961Z,94.10
2019-01-19T22:35:23.470Z,93.80
2019-01-19T22:37:52.468Z,94.10
2019-01-19T22:40:21.401Z,94.10
2019-01-19T22:42:51.000Z,94.50
2019-01-19T22:45:19.941Z,94.70
2019-01-19T22:47:48.970Z,94.60
2019-01-19T22:50:18.998Z,94.30
2019-01-19T22:52:48.050Z,94.50
2019-01-19T22:55:17.636Z,94.50
2019-01-19T22:57:46.664Z,94.60
2019-01-19T23:00:51.607Z,94.40
2019-01-19T23:03:20.628Z,94.10
2019-01-19T23:05:49.936Z,93.90
2019-01-19T23:08:18.868Z,94.00
2019-01-19T23:10:47.871Z,93.70
2019-01-19T23:13:16.807Z,94.10
2019-01-19T23:15:45.815Z,94.00
2019-01-19T23:18:14.734Z,93.60
2019-01-19T23:20:43.830Z,93.70
2019-01-19T23:23:12.775Z,93.70
2019-01-19T23:25:41.779Z,93.70
2019-01-19T23:28:10.813Z,94.10
2019-01-19T23:30:39.824Z,94.20
2019-01-19T23:33:08.866Z,94.30
2019-01-19T23:35:37.852Z,94.10
2019-01-19T23:38:06.794Z,94.10
2019-01-19T23:40:35.810Z,94.20
2019-01-19T23:43:04.848Z,94.20
2019-01-19T23:45:33.856Z,94.20
2019-01-19T23:48:02.793Z,94.20
2019-01-19T23:50:31.786Z,94.60
2019-01-19T23:53:00.719Z,94.30
2019-01-19T23:55:29.731Z,94.00
2019-01-19T23:57:58.778Z,93.90
